Yarmouth Port, MA

19:53 EDT le 22 octobre 2014 (GMT -0400)
Cape Cod Coast Guard Air Station | Change Station
CLOSE
Current Station
Aéroport
Location: Cape Cod CGAS,
Altitude: 131 ft
Stations météo à proximité
Avis météorologiques actifs: Areal Flood Watch Préavis actif: Public Information Statement

Alt. 131 ft 41.66 °N, 70.52 °W | Updated 18 minutes ago

Couvert
Couvert
57 ° F
Paraît 57 ° F
N
30
Vent Variable Vent de NE
Gusts 44 mph

Aujourd'hui
Haut(e) -- | Bas -- ° F
--% Risque de précip.
Hier
Haut(e) -- | Bas -- ° F
Precip. -- pouce
7:01 AM 5:49 PM
Lune descendante, 1% visible
Pression 29.71 pouce
Visibilité 4.0 Miles terrestres
Nuages Couvert 300 ft
Point de rosée 57 ° F
Humidité 100%
Précipitations 0.00 pouce
Profondeur de la couche neigeuse Non disponible.
UV 0 sur 12
Pollen .30 sur 12
Qualité de l'air Non disponible.
Flu Activity No Activity
METAR KFMH 222335Z AUTO 05026G38KT 4SM BR OVC003 14/14 A2971 RMK AO2 LTG DSNT E AND S

More Conditions Fewer Conditions

Pression 29.71 pouce
Visibilité 4.0 Miles terrestres
Nuages Couvert 300 ft
Point de rosée 57 ° F
Humidité 100%
Précipitations 0.00 pouce
Profondeur de la couche neigeuse Non disponible.
UV 0 sur 12
Pollen .30 sur 12
Qualité de l'air Non disponible.
Flu Activity No Activity
METAR KFMH 222335Z AUTO 05026G38KT 4SM BR OVC003 14/14 A2971 RMK AO2 LTG DSNT E AND S

More Conditions Fewer Conditions

10-Day Weather Forecast

Almanac

Astronomie

Oct. 22, 2014 Lever Coucher
Temps réel 07:01 EDT 17:49 EDT
Crépuscule civil 06:32 EDT 18:17 EDT
Crépuscule nautique 06:00 EDT 18:49 EDT
Crépuscule astronomique 05:28 EDT 19:21 EDT
Lune 05:38 EDT 17:14 EDT
Durée de lumière visible 11h 44m
Longueur du jour
10h 47m
Tomorrow will be 2m 37s shorter.
Lune descendante, 1% of the Moon is Illuminated
Aujourd'hui
Lune descendante
Oct 23
Nouveau
Oct 30
Premier quartier
Nov 6
Pleine lune
Nov 14
Dernier quartier

Extrêmes aujourd'hui

State Highs State Lows

Community

WunderPhotos

Upload Photos

1,764,080 Photos téléchargées !

WunderBlogs® & News

Nearby

Qualité de l'air

  Qualité de l'air Indice de la qualité de l'air Polluant
Hier Bon
OZONE
mercredi Bon
PM2.5
jeudi Bon
PM2.5

Épaisseur de neige

Station Depth Altitude
Pas de nouvelles chutes de neige

Activité sismique

Ville Distance Mag. Time & Date
No recent earthquake activity has been reported nearby.
Minimum magnitude displayed is 2.5.

Températures des eaux côtières

Lieu Température
Woods Hole, MA 62.1 ° F
Nantucket Island, MA 59.0 ° F
Boston, MA 57.0 ° F
Fall River, MA 63.0 ° F

Stations météo à proximité